Time;durP1;ratioP1;P1;durP2;ratioP2;P2;SDS_P1;SDS_P2;PMS_P1;PMS_P2;Temp;Humidity;BMP_temperature;BMP_pressure;BME280_temperature;BME280_humidity;BME280_pressure;Samples;Min_cycle;Max_cycle;Signal;HPM_P1;HPM_P2
2021/10/13 00:00:35;;;;;;;3.30;1.80;;;7.50;99.90;;;;;;5117956;28;20259;-86
2021/10/13 00:03:01;;;;;;;5.20;1.60;;;7.20;99.90;;;;;;5118866;28;20266;-86
2021/10/13 00:05:28;;;;;;;3.05;2.00;;;;;;;;;;5118617;28;20428;-86
2021/10/13 00:07:55;;;;;;;4.13;1.98;;;;;;;;;;5119861;28;20197;-87
2021/10/13 00:10:24;;;;;;;2.17;1.55;;;;;;;;;;5120989;28;20259;-88
2021/10/13 00:12:51;;;;;;;3.40;2.35;;;;;;;;;;5122682;28;20221;-87
2021/10/13 00:15:17;;;;;;;3.53;2.40;;;7.40;99.90;;;;;;5119707;28;20197;-87
2021/10/13 00:17:44;;;;;;;5.35;1.90;;;7.10;99.90;;;;;;5120707;28;20350;-86
2021/10/13 00:20:11;;;;;;;1.60;1.50;;;7.10;99.90;;;;;;5121487;28;20661;-87
2021/10/13 00:22:37;;;;;;;5.05;2.03;;;7.60;99.90;;;;;;5120837;28;20222;-88
2021/10/13 00:25:05;;;;;;;3.25;2.40;;;7.50;99.90;;;;;;5120377;28;20204;-88
2021/10/13 00:27:33;;;;;;;1.50;1.40;;;7.00;99.90;;;;;;5119386;28;20218;-86
2021/10/13 00:29:59;;;;;;;3.05;1.50;;;7.00;99.90;;;;;;5130080;28;20182;-85
2021/10/13 00:32:28;;;;;;;2.33;1.70;;;7.70;99.90;;;;;;5139217;27;20205;-86
2021/10/13 00:34:54;;;;;;;2.92;1.83;;;6.90;99.90;;;;;;5137888;27;20223;-87
2021/10/13 00:37:21;;;;;;;5.18;2.20;;;;;;;;;;5135638;28;20228;-87
2021/10/13 00:39:48;;;;;;;2.45;1.80;;;;;;;;;;5131451;28;20208;-89
2021/10/13 00:42:15;;;;;;;6.82;2.30;;;7.00;99.90;;;;;;5123771;28;20347;-88
2021/10/13 00:44:44;;;;;;;2.03;1.52;;;;;;;;;;5127564;28;20198;-87
2021/10/13 00:47:10;;;;;;;2.80;1.80;;;6.80;99.90;;;;;;5122052;28;20241;-86
2021/10/13 00:49:39;;;;;;;3.22;1.70;;;;;;;;;;5120867;28;20205;-88
2021/10/13 00:52:07;;;;;;;2.10;1.50;;;7.30;99.90;;;;;;5120279;28;20225;-89
2021/10/13 00:54:34;;;;;;;3.10;1.73;;;;;;;;;;5123204;28;20193;-86
2021/10/13 00:57:01;;;;;;;3.67;1.75;;;6.80;99.90;;;;;;5121245;28;20210;-89
2021/10/13 00:59:28;;;;;;;2.38;2.05;;;;;;;;;;5120327;28;20201;-87
2021/10/13 01:02:01;;;;;;;2.53;2.00;;;6.70;99.90;;;;;;5132075;28;20192;-88
2021/10/13 01:04:51;;;;;;;2.33;1.50;;;7.00;99.90;;;;;;5138556;28;20196;-88
2021/10/13 01:07:29;;;;;;;2.10;1.45;;;6.70;99.90;;;;;;5134332;28;20676;-87
2021/10/13 01:10:02;;;;;;;3.55;1.70;;;6.40;99.90;;;;;;5125386;27;20182;-86
2021/10/13 01:12:41;;;;;;;1.95;1.67;;;7.10;99.90;;;;;;5117984;28;20221;-86
2021/10/13 01:15:15;;;;;;;2.35;2.00;;;6.70;99.90;;;;;;5135940;27;20173;-87
2021/10/13 01:17:52;;;;;;;2.78;2.28;;;6.90;99.90;;;;;;5121832;27;20212;-86
2021/10/13 01:20:30;;;;;;;2.10;1.90;;;6.40;99.90;;;;;;5118740;28;20190;-87
2021/10/13 01:23:09;;;;;;;2.22;1.60;;;6.70;99.90;;;;;;5122479;28;20625;-87
2021/10/13 01:25:47;;;;;;;2.17;1.60;;;6.70;99.90;;;;;;5123065;28;20201;-88
2021/10/13 01:28:17;;;;;;;2.30;1.77;;;6.60;99.90;;;;;;5124075;28;20190;-86
2021/10/13 01:30:47;;;;;;;2.03;1.92;;;6.40;99.90;;;;;;5133691;28;20193;-88
2021/10/13 01:33:18;;;;;;;3.38;2.08;;;7.00;99.90;;;;;;5124097;28;20279;-87
2021/10/13 01:35:48;;;;;;;4.68;2.28;;;6.90;99.90;;;;;;5122569;28;20186;-86
2021/10/13 01:38:20;;;;;;;2.08;1.70;;;6.70;99.90;;;;;;5137212;28;20220;-86
2021/10/13 01:40:48;;;;;;;2.05;1.80;;;6.60;99.90;;;;;;5134704;28;20246;-87
2021/10/13 01:43:19;;;;;;;2.78;1.70;;;6.30;99.90;;;;;;5139113;28;20225;-86
2021/10/13 01:45:48;;;;;;;6.30;1.98;;;6.40;99.90;;;;;;5129126;28;20186;-86
2021/10/13 01:48:15;;;;;;;3.13;1.70;;;;;;;;;;5119782;28;20198;-86
2021/10/13 01:50:44;;;;;;;3.40;1.98;;;6.40;99.90;;;;;;5129841;27;20201;-86
2021/10/13 01:53:11;;;;;;;3.28;1.60;;;;;;;;;;5134863;27;20239;-87
2021/10/13 01:55:41;;;;;;;3.50;1.80;;;6.70;99.90;;;;;;5138228;27;20193;-87
2021/10/13 01:58:08;;;;;;;2.30;1.58;;;7.00;99.90;;;;;;5122964;28;20255;-86
2021/10/13 02:00:36;;;;;;;1.63;1.30;;;7.00;99.90;;;;;;5121629;28;20630;-86
2021/10/13 02:03:07;;;;;;;2.72;1.45;;;6.70;99.90;;;;;;5122414;28;20225;-86
2021/10/13 02:05:36;;;;;;;1.70;1.60;;;6.70;99.90;;;;;;5137417;28;20195;-86
2021/10/13 02:08:03;;;;;;;2.45;2.25;;;6.40;99.90;;;;;;5137735;27;20235;-87
2021/10/13 02:10:32;;;;;;;1.80;1.70;;;6.70;99.90;;;;;;5136698;28;20201;-85
2021/10/13 02:13:00;;;;;;;4.93;1.83;;;6.70;99.90;;;;;;5135749;28;20221;-86
2021/10/13 02:15:28;;;;;;;5.38;1.70;;;6.50;99.90;;;;;;5136764;28;20201;-85
2021/10/13 02:18:00;;;;;;;2.67;2.15;;;6.90;99.90;;;;;;5134058;28;20222;-84
2021/10/13 02:20:29;;;;;;;9.98;2.30;;;6.20;99.90;;;;;;5135306;28;20193;-85
2021/10/13 02:22:59;;;;;;;2.45;1.50;;;6.40;99.90;;;;;;5129598;28;20228;-86
2021/10/13 02:25:34;;;;;;;2.95;1.92;;;6.40;99.90;;;;;;5124952;28;20204;-86
2021/10/13 02:28:04;;;;;;;1.60;1.50;;;6.00;99.90;;;;;;5125042;28;20188;-87
2021/10/13 02:30:31;;;;;;;1.92;1.70;;;;;;;;;;5131504;28;20605;-87
2021/10/13 02:33:00;;;;;;;4.60;2.13;;;6.40;99.90;;;;;;5138742;28;20221;-88
2021/10/13 02:35:26;;;;;;;5.50;3.78;;;6.10;99.90;;;;;;5136686;28;20197;-87
2021/10/13 02:37:53;;;;;;;4.32;3.30;;;6.40;99.90;;;;;;5131180;28;20220;-84
2021/10/13 02:40:20;;;;;;;4.00;2.53;;;;;;;;;;5133542;28;20435;-86
2021/10/13 02:42:47;;;;;;;3.97;2.70;;;;;;;;;;5135609;28;20443;-86
2021/10/13 02:45:14;;;;;;;2.85;2.00;;;;;;;;;;5136994;27;20229;-86
2021/10/13 02:47:46;;;;;;;3.13;1.90;;;6.50;99.90;;;;;;5137068;27;20210;-87
2021/10/13 02:50:23;;;;;;;1.75;1.55;;;6.50;99.90;;;;;;5138985;27;20182;-88
2021/10/13 02:52:56;;;;;;;2.70;2.15;;;6.50;99.90;;;;;;5138915;27;20288;-87
2021/10/13 02:55:25;;;;;;;2.78;2.13;;;6.20;99.90;;;;;;5135313;28;20193;-86
2021/10/13 02:57:57;;;;;;;5.18;2.20;;;6.40;99.90;;;;;;5126631;28;20228;-87
2021/10/13 03:00:24;;;;;;;1.50;1.40;;;;;;;;;;5127199;28;20435;-86
2021/10/13 03:02:58;;;;;;;2.70;1.70;;;6.60;99.90;;;;;;5139876;27;20485;-85
2021/10/13 03:05:28;;;;;;;2.38;1.80;;;6.40;99.90;;;;;;5134007;27;20182;-85
2021/10/13 03:07:58;;;;;;;2.08;1.30;;;6.40;99.90;;;;;;5137104;28;20212;-88
2021/10/13 03:10:25;;;;;;;1.60;1.50;;;6.40;99.90;;;;;;5136828;28;20186;-85
2021/10/13 03:12:55;;;;;;;3.13;1.85;;;6.40;99.90;;;;;;5123382;28;20274;-86
2021/10/13 03:15:24;;;;;;;2.25;1.75;;;6.40;99.90;;;;;;5135912;28;20439;-85
2021/10/13 03:17:55;;;;;;;5.13;1.95;;;6.30;99.90;;;;;;5138942;27;20227;-85
2021/10/13 03:20:22;;;;;;;3.05;2.58;;;;;;;;;;5138796;28;20186;-86
2021/10/13 03:22:53;;;;;;;2.00;1.80;;;6.30;99.90;;;;;;5121528;28;20239;-87
2021/10/13 03:25:24;;;;;;;2.35;2.10;;;6.30;99.90;;;;;;5120701;28;20910;-88
2021/10/13 03:27:50;;;;;;;5.05;2.90;;;6.10;99.90;;;;;;5119880;28;20427;-88
2021/10/13 03:30:17;;;;;;;6.43;2.20;;;;;;;;;;5121384;28;20265;-87
2021/10/13 03:32:44;;;;;;;3.78;2.17;;;6.30;99.90;;;;;;5121210;28;20239;-88
2021/10/13 03:35:12;;;;;;;4.10;2.22;;;;;;;;;;5120642;28;20208;-87
2021/10/13 03:37:39;;;;;;;2.75;2.03;;;;;;;;;;5127170;28;20222;-85
2021/10/13 03:40:08;;;;;;;6.60;2.40;;;6.30;99.90;;;;;;5129580;28;20205;-88
2021/10/13 03:42:35;;;;;;;2.55;1.90;;;;;;;;;;5121734;28;20734;-88
2021/10/13 03:45:01;;;;;;;2.88;2.50;;;5.90;99.90;;;;;;5120145;28;20205;-88
2021/10/13 03:47:28;;;;;;;2.90;2.53;;;;;;;;;;5124219;28;20197;-88
2021/10/13 03:49:55;;;;;;;3.58;2.30;;;6.40;99.90;;;;;;5124246;28;20202;-88
2021/10/13 03:52:22;;;;;;;2.13;1.92;;;;;;;;;;5123614;28;20237;-88
2021/10/13 03:54:49;;;;;;;2.55;2.05;;;;;;;;;;5124449;28;20201;-88
2021/10/13 03:57:17;;;;;;;2.47;2.28;;;5.70;99.90;;;;;;5123896;28;20222;-88
2021/10/13 03:59:44;;;;;;;9.88;2.15;;;;;;;;;;5121636;28;20209;-87
2021/10/13 04:02:10;;;;;;;3.40;2.20;;;6.00;99.90;;;;;;5121532;28;20438;-87
2021/10/13 04:04:37;;;;;;;2.42;2.20;;;6.10;99.90;;;;;;5121661;28;20201;-87
2021/10/13 04:07:04;;;;;;;2.00;1.80;;;;;;;;;;5119192;28;20201;-87
2021/10/13 04:09:30;;;;;;;2.67;1.60;;;6.40;99.90;;;;;;5122939;28;20302;-84
2021/10/13 04:11:57;;;;;;;3.65;3.17;;;6.50;99.90;;;;;;5134662;28;20201;-84
2021/10/13 04:14:25;;;;;;;3.85;1.90;;;5.90;99.90;;;;;;5137502;27;20259;-86
2021/10/13 04:16:52;;;;;;;2.92;1.98;;;;;;;;;;5138795;27;20206;-86
2021/10/13 04:19:19;;;;;;;2.08;1.98;;;;;;;;;;5136882;28;20228;-86
2021/10/13 04:21:45;;;;;;;2.08;1.98;;;6.20;99.90;;;;;;5122745;28;20209;-88
2021/10/13 04:24:12;;;;;;;4.32;2.20;;;6.20;99.90;;;;;;5128727;28;20210;-88
2021/10/13 04:26:39;;;;;;;2.00;1.90;;;6.30;99.90;;;;;;5133015;27;20569;-87
2021/10/13 04:29:05;;;;;;;3.03;2.70;;;5.70;99.90;;;;;;5122559;28;20198;-88
2021/10/13 04:31:33;;;;;;;3.65;2.03;;;6.00;99.90;;;;;;5131451;28;20206;-86
2021/10/13 04:34:00;;;;;;;3.72;2.13;;;;;;;;;;5139040;27;20201;-87
2021/10/13 04:36:27;;;;;;;4.07;2.10;;;6.20;99.90;;;;;;5139424;27;20195;-88
2021/10/13 04:38:53;;;;;;;2.45;2.22;;;6.40;99.90;;;;;;5134047;27;20229;-88
2021/10/13 04:41:20;;;;;;;2.45;2.25;;;6.20;99.90;;;;;;5123098;28;20209;-89
2021/10/13 04:43:47;;;;;;;2.75;2.30;;;;;;;;;;5121840;28;20726;-87
2021/10/13 04:46:14;;;;;;;8.02;6.10;;;;;;;;;;5121580;28;20227;-87
2021/10/13 04:48:42;;;;;;;21.58;12.13;;;;;;;;;;5130331;27;20182;-85
2021/10/13 04:51:08;;;;;;;15.45;8.40;;;5.80;99.90;;;;;;5136830;28;20201;-85
2021/10/13 04:53:44;;;;;;;5.50;3.55;;;;;;;;;;5155198;22;20277;-81
2021/10/13 04:56:26;;;;;;;7.60;3.22;;;;;;;;;;5137822;27;20185;-81
2021/10/13 04:59:05;;;;;;;4.80;3.97;;;;;;;;;;5140850;27;20243;-82
2021/10/13 05:04:44;;;;;;;5.35;2.33;;;;;;;;;;5140006;27;20268;-81
2021/10/13 05:07:25;;;;;;;2.75;2.47;;;;;;;;;;5140374;27;20209;-81
2021/10/13 05:10:14;;;;;;;3.33;2.40;;;6.40;99.90;;;;;;5139768;27;20587;-81
2021/10/13 05:12:43;;;;;;;43.08;13.18;;;;;;;;;;5134275;27;21049;-81
2021/10/13 05:15:13;;;;;;;3.10;2.80;;;;;;;;;;5139796;27;20205;-81
2021/10/13 05:17:47;;;;;;;3.65;2.85;;;;;;;;;;5139866;27;20244;-81
2021/10/13 05:20:23;;;;;;;4.72;2.38;;;;;;;;;;5144991;27;20181;-81
2021/10/13 05:23:00;;;;;;;6.72;5.75;;;;;;;;;;5140211;27;20216;-81
2021/10/13 05:25:27;;;;;;;3.58;3.22;;;;;;;;;;5139728;27;20193;-81
2021/10/13 05:27:55;;;;;;;6.55;3.78;;;;;;;;;;5140416;27;20205;-81
2021/10/13 05:30:26;;;;;;;3.47;3.17;;;;;;;;;;5139026;27;20196;-81
2021/10/13 05:32:56;;;;;;;3.03;2.75;;;;;;;;;;5139480;27;20221;-80
2021/10/13 05:35:27;;;;;;;3.40;3.10;;;6.30;99.90;;;;;;5139789;27;20555;-81
2021/10/13 05:37:54;;;;;;;3.65;3.35;;;6.40;99.90;;;;;;5145508;27;20197;-81
2021/10/13 05:41:03;;;;;;;3.50;3.20;;;;;;;;;;5160131;27;20196;-81
2021/10/13 05:43:44;;;;;;;8.45;3.38;;;;;;;;;;5147878;22;20305;-81
2021/10/13 05:46:20;;;;;;;4.00;3.60;;;;;;;;;;5119894;28;20235;-82
2021/10/13 05:48:54;;;;;;;4.05;3.08;;;;;;;;;;5121062;28;20200;-81
2021/10/13 05:51:29;;;;;;;3.05;2.50;;;;;;;;;;5120822;28;20207;-81
2021/10/13 05:56:40;;;;;;;3.92;3.22;;;;;;;;;;5163493;22;20279;-86
2021/10/13 05:59:08;;;;;;;4.80;3.70;;;;;;;;;;5161992;27;20208;-86
2021/10/13 06:01:35;;;;;;;4.57;3.92;;;;;;;;;;5146017;27;20602;-85
2021/10/13 06:04:02;;;;;;;4.30;3.72;;;;;;;;;;5143741;27;20694;-86
2021/10/13 06:06:30;;;;;;;4.18;3.78;;;6.60;99.90;;;;;;5143042;27;20730;-87
2021/10/13 06:08:56;;;;;;;3.53;3.22;;;6.10;99.90;;;;;;5144430;27;20590;-85
2021/10/13 06:11:23;;;;;;;4.35;3.38;;;;;;;;;;5146668;27;20201;-86
2021/10/13 06:13:52;;;;;;;4.55;3.97;;;;;;;;;;5146451;27;20208;-85
2021/10/13 06:16:19;;;;;;;4.00;3.00;;;;;;;;;;5144970;27;20228;-85
2021/10/13 06:18:50;;;;;;;3.80;3.00;;;;;;;;;;5155179;27;20228;-83
2021/10/13 06:21:17;;;;;;;4.57;3.80;;;;;;;;;;5161298;27;20223;-81
2021/10/13 06:23:45;;;;;;;5.18;3.70;;;6.30;99.90;;;;;;5159435;27;20204;-85
2021/10/13 06:26:12;;;;;;;4.30;3.65;;;;;;;;;;5156004;27;20201;-84
2021/10/13 06:28:39;;;;;;;5.75;3.10;;;;;;;;;;5148629;27;20208;-85
2021/10/13 06:31:06;;;;;;;4.10;3.70;;;;;;;;;;5147762;27;20216;-86
2021/10/13 06:33:33;;;;;;;3.38;3.08;;;;;;;;;;5144770;27;20208;-85
2021/10/13 06:36:00;;;;;;;6.25;3.75;;;6.30;99.90;;;;;;5150258;27;20241;-84
2021/10/13 06:38:27;;;;;;;5.70;3.92;;;6.50;99.90;;;;;;5155940;27;20228;-85
2021/10/13 06:40:55;;;;;;;4.72;4.15;;;6.60;99.90;;;;;;5144295;27;20203;-86
2021/10/13 06:43:22;;;;;;;3.92;3.63;;;;;;;;;;5142716;27;20644;-85
2021/10/13 06:45:49;;;;;;;6.00;3.85;;;;;;;;;;5143436;27;20656;-85
2021/10/13 06:48:16;;;;;;;4.75;3.60;;;;;;;;;;5147387;27;20208;-84
2021/10/13 06:50:43;;;;;;;7.15;4.43;;;;;;;;;;5149110;27;20205;-85
2021/10/13 06:53:09;;;;;;;6.57;3.55;;;6.60;99.90;;;;;;5152352;27;20197;-84
2021/10/13 06:55:38;;;;;;;5.57;3.70;;;6.70;99.90;;;;;;5143936;27;20243;-85
2021/10/13 06:58:06;;;;;;;8.02;4.40;;;6.70;99.90;;;;;;5142396;27;20227;-86
2021/10/13 07:00:33;;;;;;;9.27;4.60;;;;;;;;;;5149643;27;20208;-85
2021/10/13 07:03:00;;;;;;;5.20;4.10;;;;;;;;;;5142827;27;20193;-85
2021/10/13 07:05:26;;;;;;;6.95;4.30;;;7.00;99.90;;;;;;5143450;27;20227;-86
2021/10/13 07:07:53;;;;;;;7.75;3.50;;;7.10;99.90;;;;;;5143609;27;20331;-85
2021/10/13 07:10:20;;;;;;;7.90;4.15;;;;;;;;;;5142493;27;20212;-86
2021/10/13 07:12:47;;;;;;;4.63;4.10;;;;;;;;;;5142380;27;20685;-85
2021/10/13 07:15:16;;;;;;;3.78;3.33;;;;;;;;;;5141932;27;20235;-86
2021/10/13 07:17:43;;;;;;;8.80;5.60;;;;;;;;;;5143538;27;20257;-86
2021/10/13 07:20:11;;;;;;;5.32;4.10;;;7.30;99.90;;;;;;5141758;27;20196;-85
2021/10/13 07:22:38;;;;;;;7.43;4.30;;;6.90;99.90;;;;;;5142416;27;20201;-85
2021/10/13 07:25:06;;;;;;;6.95;4.57;;;7.20;99.90;;;;;;5143380;27;20197;-85
2021/10/13 07:27:33;;;;;;;4.63;3.78;;;7.40;99.90;;;;;;5155463;27;20221;-83
2021/10/13 07:30:01;;;;;;;9.27;4.60;;;;;;;;;;5155513;27;20201;-83
2021/10/13 07:32:34;;;;;;;7.47;4.35;;;7.50;99.90;;;;;;5148913;27;20201;-86
2021/10/13 07:35:02;;;;;;;7.43;4.53;;;;;;;;;;5142589;27;20217;-83
2021/10/13 07:37:29;;;;;;;7.93;4.63;;;7.50;99.90;;;;;;5141992;27;20253;-84
2021/10/13 07:39:56;;;;;;;7.63;4.70;;;;;;;;;;5142697;27;20270;-87
2021/10/13 07:42:23;;;;;;;7.80;4.15;;;;;;;;;;5143199;27;20593;-85
2021/10/13 07:44:50;;;;;;;6.20;5.15;;;;;;;;;;5145128;27;20201;-86
2021/10/13 07:47:17;;;;;;;9.98;5.85;;;;;;;;;;5148453;27;20301;-85
2021/10/13 07:49:50;;;;;;;11.23;6.38;;;7.70;99.90;;;;;;5145930;27;20197;-85
2021/10/13 07:52:17;;;;;;;5.75;4.22;;;;;;;;;;5150844;27;20190;-81
2021/10/13 07:54:44;;;;;;;6.03;4.82;;;;;;;;;;5147793;27;20226;-81
2021/10/13 07:57:11;;;;;;;8.15;5.30;;;;;;;;;;5154015;27;20281;-85
2021/10/13 07:59:38;;;;;;;8.23;6.28;;;;;;;;;;5149436;27;20220;-83
2021/10/13 08:02:05;;;;;;;6.88;4.28;;;;;;;;;;5151722;27;20209;-86
2021/10/13 08:04:32;;;;;;;4.45;3.85;;;8.30;99.90;;;;;;5148940;27;20205;-84
2021/10/13 08:07:00;;;;;;;9.25;4.68;;;8.00;99.90;;;;;;5151981;28;20225;-84
2021/10/13 08:09:26;;;;;;;6.47;4.68;;;8.30;99.90;;;;;;5148021;27;20232;-85
2021/10/13 08:11:53;;;;;;;7.73;4.60;;;;;;;;;;5143874;28;20586;-86
2021/10/13 08:14:20;;;;;;;6.68;4.18;;;;;;;;;;5142199;28;21046;-85
2021/10/13 08:16:47;;;;;;;5.18;4.38;;;7.90;99.90;;;;;;5156999;27;20230;-84
2021/10/13 08:19:14;;;;;;;10.13;4.80;;;;;;;;;;5156982;27;20221;-85
2021/10/13 08:21:41;;;;;;;6.55;4.00;;;;;;;;;;5154957;28;20201;-86
2021/10/13 08:24:09;;;;;;;9.30;4.07;;;8.40;99.90;;;;;;5152504;28;20201;-84
2021/10/13 08:26:35;;;;;;;7.88;3.95;;;8.00;99.90;;;;;;5151219;28;20499;-83
2021/10/13 08:29:02;;;;;;;6.72;4.80;;;8.60;99.90;;;;;;5149077;28;20197;-85
2021/10/13 08:31:29;;;;;;;4.40;3.88;;;;;;;;;;5144893;27;20226;-84
2021/10/13 08:33:56;;;;;;;3.92;3.42;;;;;;;;;;5149050;27;20216;-87
2021/10/13 08:36:23;;;;;;;5.95;3.80;;;9.10;99.90;;;;;;5148920;27;20220;-87
2021/10/13 08:38:50;;;;;;;7.03;3.72;;;;;;;;;;5150717;27;20221;-86
2021/10/13 08:41:18;;;;;;;5.23;3.90;;;8.90;99.90;;;;;;5158079;27;20204;-86
2021/10/13 08:43:45;;;;;;;4.83;4.03;;;;;;;;;;5163105;27;20423;-83
2021/10/13 08:46:12;;;;;;;7.78;3.60;;;;;;;;;;5162959;27;20497;-84
2021/10/13 08:48:39;;;;;;;9.90;3.37;;;;;;;;;;5162641;27;20189;-85
2021/10/13 08:51:06;;;;;;;6.30;3.97;;;;;;;;;;5162734;27;20426;-85
2021/10/13 08:53:33;;;;;;;5.50;3.80;;;;;;;;;;5162374;27;20442;-86
2021/10/13 08:56:00;;;;;;;9.27;4.23;;;;;;;;;;5161252;27;20466;-86
2021/10/13 08:58:29;;;;;;;5.77;3.83;;;9.20;99.90;;;;;;5150777;27;20445;-86
2021/10/13 09:01:09;;;;;;;4.30;3.80;;;9.30;99.90;;;;;;5154672;27;20450;-87
2021/10/13 09:03:37;;;;;;;8.60;4.40;;;9.40;99.90;;;;;;5151384;27;20209;-87
2021/10/13 09:06:14;;;;;;;3.63;3.30;;;9.40;99.90;;;;;;5154126;27;20438;-87
2021/10/13 09:08:57;;;;;;;3.50;3.20;;;9.50;99.90;;;;;;5149988;27;20430;-86
2021/10/13 09:11:35;;;;;;;3.83;3.37;;;10.00;99.90;;;;;;5148182;27;20433;-87
2021/10/13 09:14:14;;;;;;;5.13;3.40;;;9.60;99.90;;;;;;5147789;27;20784;-87
2021/10/13 09:16:54;;;;;;;4.23;3.70;;;9.60;99.90;;;;;;5153161;27;20476;-86
2021/10/13 09:19:22;;;;;;;4.30;3.90;;;9.70;99.90;;;;;;5150089;27;20462;-86
2021/10/13 09:21:51;;;;;;;5.80;4.60;;;9.80;99.90;;;;;;5148792;27;20476;-87
2021/10/13 09:24:17;;;;;;;6.07;3.20;;;10.20;99.90;;;;;;5147787;27;20454;-86
2021/10/13 09:26:44;;;;;;;11.10;3.50;;;;;;;;;;5146593;27;20495;-86
2021/10/13 09:29:12;;;;;;;5.33;2.87;;;;;;;;;;5147018;27;20405;-87
2021/10/13 09:31:40;;;;;;;8.03;4.00;;;10.10;99.90;;;;;;5147561;27;20442;-86
2021/10/13 09:34:08;;;;;;;7.63;3.60;;;10.00;99.90;;;;;;5156785;27;20446;-81
2021/10/13 09:36:38;;;;;;;5.23;3.63;;;9.60;99.90;;;;;;5154729;27;20467;-82
2021/10/13 09:39:12;;;;;;;5.40;4.10;;;10.30;99.90;;;;;;5156867;27;20478;-82
2021/10/13 09:42:12;;;;;;;10.17;3.70;;;10.10;99.90;;;;;;5155534;27;20456;-86
2021/10/13 09:44:41;;;;;;;6.07;3.10;;;10.20;99.90;;;;;;5152382;27;20483;-83
2021/10/13 09:47:11;;;;;;;3.80;3.17;;;10.30;99.90;;;;;;5148680;27;20969;-80
2021/10/13 09:49:39;;;;;;;5.33;3.57;;;10.40;99.90;;;;;;5145334;27;20419;-82
2021/10/13 09:52:14;;;;;;;3.57;3.27;;;10.30;99.90;;;;;;5142776;27;20413;-80
2021/10/13 09:54:43;;;;;;;7.47;3.60;;;10.30;99.90;;;;;;5140006;27;20465;-79
2021/10/13 09:57:21;;;;;;;3.47;3.17;;;10.40;99.90;;;;;;5139772;27;20470;-81
2021/10/13 10:00:04;;;;;;;4.30;3.07;;;10.80;99.90;;;;;;5140995;27;20879;-81
2021/10/13 10:02:38;;;;;;;3.40;2.77;;;10.50;99.90;;;;;;5141007;27;20433;-82
2021/10/13 10:05:08;;;;;;;4.10;3.40;;;10.50;99.90;;;;;;5140605;27;20464;-81
2021/10/13 10:07:36;;;;;;;7.57;4.17;;;;;;;;;;5141196;27;20494;-81
2021/10/13 10:10:11;;;;;;;3.37;2.70;;;10.40;99.90;;;;;;5140596;27;20534;-81
2021/10/13 10:13:04;;;;;;;6.00;3.10;;;11.10;99.90;;;;;;5142727;27;20451;-80
2021/10/13 10:15:36;;;;;;;9.27;3.43;;;11.20;99.90;;;;;;5148879;27;20427;-80
2021/10/13 10:18:26;;;;;;;3.20;2.83;;;11.00;99.90;;;;;;5141113;27;20455;-82
2021/10/13 10:20:53;;;;;;;13.13;4.50;;;10.70;99.90;;;;;;5140759;27;20512;-81
2021/10/13 10:23:31;;;;;;;6.20;2.57;;;11.00;99.90;;;;;;5141168;27;20433;-81
2021/10/13 10:26:02;;;;;;;3.67;3.07;;;10.90;99.90;;;;;;5139673;27;20466;-81
2021/10/13 10:28:57;;;;;;;4.70;4.10;;;10.90;99.90;;;;;;5142413;27;20430;-78
2021/10/13 10:31:36;;;;;;;4.67;3.10;;;10.20;99.90;;;;;;5144541;27;20854;-79
2021/10/13 10:34:16;;;;;;;6.30;2.80;;;11.40;99.90;;;;;;5141349;27;20503;-78
2021/10/13 10:37:12;;;;;;;3.80;2.90;;;11.30;99.90;;;;;;5141791;27;20458;-78
2021/10/13 10:39:57;;;;;;;4.10;3.20;;;11.40;99.90;;;;;;5141373;27;20478;-78
2021/10/13 10:42:44;;;;;;;4.10;3.30;;;11.00;99.90;;;;;;5144564;27;20438;-77
2021/10/13 10:45:15;;;;;;;6.00;3.33;;;11.20;99.90;;;;;;5144361;27;20446;-80
2021/10/13 10:47:50;;;;;;;4.43;3.93;;;11.00;99.90;;;;;;5142740;27;20465;-83
2021/10/13 10:50:31;;;;;;;3.40;2.90;;;11.10;99.90;;;;;;5146992;27;20446;-82
2021/10/13 10:53:24;;;;;;;4.33;3.13;;;11.00;99.90;;;;;;5146946;27;20463;-78
2021/10/13 10:55:52;;;;;;;3.00;2.47;;;11.20;99.90;;;;;;5145636;27;20474;-79
2021/10/13 10:58:24;;;;;;;3.33;2.57;;;10.80;99.90;;;;;;5140893;27;20951;-79
2021/10/13 11:01:05;;;;;;;4.03;3.07;;;11.40;99.90;;;;;;5140841;27;20458;-80
2021/10/13 11:03:37;;;;;;;5.27;2.70;;;11.20;99.90;;;;;;5139663;27;20402;-81
2021/10/13 11:06:18;;;;;;;3.60;2.67;;;11.30;99.90;;;;;;5140867;27;20462;-80
2021/10/13 11:09:03;;;;;;;4.20;3.07;;;10.10;99.90;;;;;;5139492;27;20456;-81
2021/10/13 11:11:32;;;;;;;4.60;3.43;;;11.00;99.90;;;;;;5139701;27;20430;-80
2021/10/13 11:14:12;;;;;;;5.60;2.90;;;11.40;99.90;;;;;;5139261;27;20788;-80
2021/10/13 11:16:47;;;;;;;5.00;3.50;;;11.80;99.90;;;;;;5139328;27;20467;-81
2021/10/13 11:19:18;;;;;;;2.47;2.27;;;11.10;99.90;;;;;;5138865;27;20949;-79
2021/10/13 11:21:54;;;;;;;2.40;2.20;;;11.50;99.90;;;;;;5147668;27;20484;-79
2021/10/13 11:24:20;;;;;;;4.10;2.77;;;11.20;99.90;;;;;;5144922;27;20888;-78
2021/10/13 11:26:47;;;;;;;3.40;3.10;;;11.80;99.90;;;;;;5141250;27;20466;-80
2021/10/13 11:29:23;;;;;;;4.17;3.30;;;11.20;99.90;;;;;;5147618;27;20434;-81
2021/10/13 11:32:01;;;;;;;3.50;2.60;;;11.90;99.90;;;;;;5146218;27;20423;-83
2021/10/13 11:34:28;;;;;;;3.33;2.50;;;;;;;;;;5141355;27;20452;-83
2021/10/13 11:36:57;;;;;;;5.20;3.07;;;11.80;99.90;;;;;;5139588;27;20471;-80
2021/10/13 11:39:28;;;;;;;2.73;2.53;;;11.50;99.90;;;;;;5140350;27;20474;-82
2021/10/13 11:41:58;;;;;;;3.10;2.50;;;11.50;99.90;;;;;;5140247;27;20429;-85
2021/10/13 11:44:26;;;;;;;4.37;3.40;;;11.50;99.90;;;;;;5140650;27;20402;-82
2021/10/13 11:47:10;;;;;;;8.43;7.30;;;11.80;99.90;;;;;;5139302;27;20495;-82
2021/10/13 11:49:55;;;;;;;4.60;3.50;;;12.30;99.90;;;;;;5140108;27;20427;-80
2021/10/13 11:52:22;;;;;;;5.77;3.83;;;11.60;99.90;;;;;;5140141;27;20413;-85
2021/10/13 11:54:57;;;;;;;4.77;2.73;;;12.10;99.90;;;;;;5140298;27;20475;-84
2021/10/13 11:57:25;;;;;;;4.20;2.93;;;12.00;99.90;;;;;;5170410;22;20490;-85
2021/10/13 12:00:10;;;;;;;2.53;2.33;;;12.50;99.90;;;;;;5134666;28;20441;-84
2021/10/13 12:02:37;;;;;;;3.60;3.27;;;12.00;99.90;;;;;;5132460;28;20439;-83
2021/10/13 12:05:06;;;;;;;3.93;2.60;;;12.00;99.90;;;;;;5131439;28;20448;-84
2021/10/13 12:07:42;;;;;;;3.97;2.97;;;11.90;99.90;;;;;;5126985;28;20463;-85
2021/10/13 12:10:10;;;;;;;4.17;3.10;;;12.30;99.90;;;;;;5128245;28;20480;-86
2021/10/13 12:13:10;;;;;;;2.43;2.23;;;12.00;99.90;;;;;;5127985;28;20455;-86
2021/10/13 12:15:37;;;;;;;3.60;2.87;;;;;;;;;;5128603;28;20474;-86
2021/10/13 12:18:21;;;;;;;5.20;3.00;;;11.90;99.90;;;;;;5127297;28;20448;-87
2021/10/13 12:21:07;;;;;;;2.60;2.40;;;11.90;99.90;;;;;;5122369;28;20550;-85
2021/10/13 12:23:43;;;;;;;5.60;3.40;;;12.00;99.90;;;;;;5119250;28;20903;-86
2021/10/13 12:26:17;;;;;;;4.80;4.07;;;11.90;99.90;;;;;;5119061;28;20517;-86
2021/10/13 12:28:44;;;;;;;4.70;2.60;;;;;;;;;;5119712;28;20448;-87
2021/10/13 12:31:13;;;;;;;3.33;2.27;;;12.00;99.90;;;;;;5118607;28;20551;-87
2021/10/13 12:33:42;;;;;;;2.87;2.00;;;;;;;;;;5119258;28;20512;-87
2021/10/13 12:36:11;;;;;;;5.60;3.00;;;12.00;99.90;;;;;;5121689;28;20472;-86
2021/10/13 12:38:47;;;;;;;4.73;2.43;;;11.80;99.90;;;;;;5122309;28;20447;-85
2021/10/13 12:41:14;;;;;;;3.87;3.00;;;;;;;;;;5121316;28;20431;-86
2021/10/13 12:43:42;;;;;;;3.57;2.83;;;11.80;99.90;;;;;;5119997;28;20447;-87
2021/10/13 12:46:27;;;;;;;3.40;3.07;;;11.80;99.90;;;;;;5118775;28;20471;-86
2021/10/13 12:48:54;;;;;;;3.23;2.93;;;;;;;;;;5128243;28;20453;-86
2021/10/13 12:51:22;;;;;;;2.83;2.53;;;;;;;;;;5132818;28;20483;-85
2021/10/13 12:53:50;;;;;;;3.17;2.97;;;;;;;;;;5136596;28;20458;-86
2021/10/13 12:56:18;;;;;;;3.43;2.83;;;11.70;99.90;;;;;;5133671;28;20520;-86
2021/10/13 12:58:47;;;;;;;2.67;2.47;;;11.70;99.90;;;;;;5132970;28;20454;-86
2021/10/13 13:01:14;;;;;;;4.43;3.63;;;;;;;;;;5133083;28;20937;-86
2021/10/13 13:03:41;;;;;;;3.47;2.40;;;;;;;;;;5128578;28;20447;-86
2021/10/13 13:06:08;;;;;;;3.67;2.30;;;;;;;;;;5127762;28;20463;-86
2021/10/13 13:08:36;;;;;;;3.50;3.17;;;;;;;;;;5128271;28;20458;-86
2021/10/13 13:11:04;;;;;;;2.70;2.27;;;11.80;99.90;;;;;;5133080;28;20471;-86
2021/10/13 13:13:31;;;;;;;3.83;3.53;;;12.20;99.90;;;;;;5131316;28;20421;-86
2021/10/13 13:15:58;;;;;;;2.10;1.90;;;;;;;;;;5126216;28;21049;-86
2021/10/13 13:18:25;;;;;;;2.63;2.20;;;;;;;;;;5132684;28;20428;-86
2021/10/13 13:20:55;;;;;;;4.63;1.90;;;;;;;;;;5135894;28;20443;-87
2021/10/13 13:23:23;;;;;;;3.43;1.87;;;11.90;99.90;;;;;;5133473;28;20457;-86
2021/10/13 13:25:50;;;;;;;2.03;1.87;;;;;;;;;;5136095;28;20475;-86
2021/10/13 13:28:19;;;;;;;3.50;2.67;;;12.30;99.90;;;;;;5134689;28;20451;-86
2021/10/13 13:30:46;;;;;;;2.60;2.03;;;;;;;;;;5131698;28;20483;-86
2021/10/13 13:33:13;;;;;;;7.03;2.90;;;;;;;;;;5130270;28;20555;-85
2021/10/13 13:35:41;;;;;;;3.10;2.80;;;;;;;;;;5130868;28;20443;-85
2021/10/13 13:38:29;;;;;;;;;;;;;;;;;;;;;
2021/10/13 13:41:06;;;;;;;2.00;1.90;;;;;;;;;;5128233;28;20538;-86
2021/10/13 13:43:35;;;;;;;2.47;2.30;;;11.90;99.90;;;;;;5127109;28;20428;-85
2021/10/13 13:46:08;;;;;;;2.70;2.43;;;;;;;;;;5127322;28;20844;-86
2021/10/13 13:51:47;;;;;;;7.23;2.60;;;;;;;;;;5122007;28;20475;-86
2021/10/13 13:54:17;;;;;;;3.67;2.53;;;;;;;;;;5125133;28;20457;-86
2021/10/13 13:56:46;;;;;;;3.83;2.80;;;;;;;;;;5134608;28;20471;-86
2021/10/13 13:59:15;;;;;;;4.53;2.73;;;;;;;;;;5123017;28;20550;-86